Time;durP1;ratioP1;P1;durP2;ratioP2;P2;SDS_P1;SDS_P2;PMS_P1;PMS_P2;Temp;Humidity;BMP_temperature;BMP_pressure;BME280_temperature;BME280_humidity;BME280_pressure;Samples;Min_cycle;Max_cycle;Signal;HPM_P1;HPM_P2
2022/09/01 00:02:11;;;;;;;6.95;2.25;;;15.70;99.90;;;;;;5050983;28;20068;-59
2022/09/01 00:04:37;;;;;;;2.50;1.70;;;15.60;99.90;;;;;;5033964;28;20064;-59
2022/09/01 00:07:05;;;;;;;4.03;1.85;;;15.60;99.90;;;;;;5051580;28;20044;-58
2022/09/01 00:09:31;;;;;;;6.10;2.10;;;15.60;99.90;;;;;;5051207;28;20053;-58
2022/09/01 00:11:57;;;;;;;3.70;1.70;;;15.60;99.90;;;;;;5033879;28;20521;-59
2022/09/01 00:14:27;;;;;;;3.15;1.67;;;15.60;99.90;;;;;;5051210;28;20123;-58
2022/09/01 00:16:53;;;;;;;2.30;1.80;;;15.60;99.90;;;;;;5051582;28;20475;-58
2022/09/01 00:19:19;;;;;;;3.95;2.05;;;15.50;99.90;;;;;;5051000;28;20087;-58
2022/09/01 00:21:47;;;;;;;3.30;1.80;;;15.50;99.90;;;;;;5049931;28;20047;-59
2022/09/01 00:24:15;;;;;;;3.03;1.67;;;15.50;99.90;;;;;;5033297;28;20128;-59
2022/09/01 00:26:40;;;;;;;3.22;1.75;;;15.50;99.90;;;;;;5051469;28;20053;-58
2022/09/01 00:29:07;;;;;;;3.80;1.92;;;15.50;99.90;;;;;;5033875;28;20045;-59
2022/09/01 00:31:33;;;;;;;4.07;1.63;;;15.40;99.90;;;;;;5016851;28;20125;-59
2022/09/01 00:33:59;;;;;;;3.17;1.70;;;15.40;99.90;;;;;;5051419;28;20036;-58
2022/09/01 00:36:25;;;;;;;7.93;1.88;;;15.40;99.90;;;;;;5051079;28;20053;-59
2022/09/01 00:38:52;;;;;;;3.47;1.85;;;15.30;99.90;;;;;;5051133;28;20075;-59
2022/09/01 00:41:21;;;;;;;3.45;1.45;;;15.30;99.90;;;;;;5033143;28;20053;-58
2022/09/01 00:43:53;;;;;;;7.40;2.75;;;15.30;99.90;;;;;;5033540;28;20053;-58
2022/09/01 00:46:25;;;;;;;4.75;1.80;;;15.30;99.90;;;;;;5033114;28;20069;-58
2022/09/01 00:49:00;;;;;;;4.75;1.65;;;15.20;99.90;;;;;;5051237;28;20540;-58
2022/09/01 00:51:27;;;;;;;3.72;1.60;;;15.30;99.90;;;;;;5033601;28;20037;-59
2022/09/01 00:53:54;;;;;;;5.47;1.65;;;15.20;99.90;;;;;;5050983;28;20414;-58
2022/09/01 00:56:22;;;;;;;2.75;1.58;;;15.20;99.90;;;;;;5050856;28;20045;-59
2022/09/01 00:58:50;;;;;;;2.72;1.73;;;15.20;99.90;;;;;;5050785;28;20049;-59
2022/09/01 01:01:17;;;;;;;3.85;1.63;;;15.20;99.90;;;;;;5032611;28;20067;-61
2022/09/01 01:03:46;;;;;;;3.58;1.58;;;15.20;99.90;;;;;;5051045;28;20201;-58
2022/09/01 01:06:15;;;;;;;3.28;1.80;;;15.20;99.90;;;;;;5033678;28;20108;-58
2022/09/01 01:08:50;;;;;;;5.82;1.80;;;15.20;99.90;;;;;;5050957;28;20041;-58
2022/09/01 01:11:16;;;;;;;4.63;1.83;;;15.20;99.90;;;;;;5050584;28;20056;-61
2022/09/01 01:14:04;;;;;;;4.07;1.95;;;15.20;99.90;;;;;;5051027;28;20041;-58
2022/09/01 01:16:31;;;;;;;4.45;1.73;;;15.20;99.90;;;;;;5033192;28;20071;-59
2022/09/01 01:18:57;;;;;;;7.47;1.80;;;15.30;99.90;;;;;;5050764;28;20128;-62
2022/09/01 01:24:28;;;;;;;3.10;2.03;;;15.30;99.90;;;;;;5050799;28;20124;-58
2022/09/01 01:26:58;;;;;;;3.20;1.75;;;15.20;99.90;;;;;;5033056;28;20140;-58
2022/09/01 01:29:33;;;;;;;2.53;1.70;;;15.30;99.90;;;;;;5050691;28;20445;-58
2022/09/01 01:32:00;;;;;;;3.65;1.90;;;15.30;99.90;;;;;;5050652;28;20513;-58
2022/09/01 01:34:26;;;;;;;2.60;1.70;;;15.30;99.90;;;;;;5035997;28;20131;-59
2022/09/01 01:36:52;;;;;;;4.47;1.90;;;15.30;99.90;;;;;;5036740;28;20188;-59
2022/09/01 01:39:27;;;;;;;3.80;1.92;;;15.30;99.90;;;;;;5054005;28;20036;-59
2022/09/01 01:41:55;;;;;;;7.68;2.45;;;15.20;99.90;;;;;;5036603;28;20045;-59
2022/09/01 01:44:27;;;;;;;3.22;1.80;;;15.20;99.90;;;;;;5053952;28;20045;-62
2022/09/01 01:46:54;;;;;;;3.92;2.03;;;15.20;99.90;;;;;;5054130;28;20136;-59
2022/09/01 01:49:23;;;;;;;3.30;1.85;;;15.30;99.90;;;;;;5036397;28;20053;-60
2022/09/01 01:51:54;;;;;;;3.78;1.90;;;15.20;99.90;;;;;;5054236;28;20059;-60
2022/09/01 01:54:22;;;;;;;3.10;2.00;;;15.20;99.90;;;;;;5054227;28;20053;-64
2022/09/01 01:56:48;;;;;;;3.65;1.90;;;15.30;99.90;;;;;;5053893;28;20059;-59
2022/09/01 01:59:15;;;;;;;3.33;1.80;;;15.30;99.90;;;;;;5054015;28;20104;-59
2022/09/01 02:01:48;;;;;;;2.97;1.80;;;15.30;99.90;;;;;;5035648;28;20617;-59
2022/09/01 02:04:15;;;;;;;3.92;1.90;;;15.30;99.90;;;;;;5053783;28;20064;-59
2022/09/01 02:06:44;;;;;;;3.50;1.77;;;15.30;99.90;;;;;;5035822;28;20069;-60
2022/09/01 02:09:11;;;;;;;4.38;2.47;;;15.30;99.90;;;;;;5054160;28;20048;-59
2022/09/01 02:11:37;;;;;;;2.58;1.88;;;15.30;99.90;;;;;;5053369;28;20049;-59
2022/09/01 02:14:05;;;;;;;2.47;1.80;;;15.30;99.90;;;;;;5053541;28;20052;-59
2022/09/01 02:16:32;;;;;;;2.40;1.80;;;15.30;99.90;;;;;;5053338;28;20391;-61
2022/09/01 02:18:59;;;;;;;2.78;1.90;;;15.30;99.90;;;;;;5053390;28;20506;-59
2022/09/01 02:21:26;;;;;;;2.90;1.92;;;15.30;99.90;;;;;;5053318;28;20040;-61
2022/09/01 02:24:04;;;;;;;3.30;2.00;;;15.30;99.90;;;;;;5053641;28;20045;-61
2022/09/01 02:26:37;;;;;;;3.80;1.92;;;15.30;99.90;;;;;;5053187;28;20064;-59
2022/09/01 02:29:07;;;;;;;2.38;1.60;;;15.30;99.90;;;;;;5053475;28;20072;-59
2022/09/01 02:31:38;;;;;;;2.33;1.90;;;15.20;99.90;;;;;;5053185;28;20103;-59
2022/09/01 02:34:09;;;;;;;2.35;1.92;;;15.20;99.90;;;;;;5053464;28;20124;-59
2022/09/01 02:36:36;;;;;;;4.55;2.00;;;15.20;99.90;;;;;;5053060;28;20049;-59
2022/09/01 02:39:03;;;;;;;3.63;2.10;;;15.20;99.90;;;;;;5053173;28;20044;-59
2022/09/01 02:41:31;;;;;;;3.28;2.20;;;15.20;99.90;;;;;;5035364;28;20124;-62
2022/09/01 02:44:01;;;;;;;5.72;1.85;;;15.20;99.90;;;;;;5052718;28;20464;-59
2022/09/01 02:46:28;;;;;;;3.25;1.90;;;15.20;99.90;;;;;;5052933;28;20591;-59
2022/09/01 02:48:54;;;;;;;2.78;1.88;;;15.10;99.90;;;;;;5052933;28;20044;-59
2022/09/01 02:51:24;;;;;;;2.25;1.80;;;15.20;99.90;;;;;;5035344;28;20053;-59
2022/09/01 02:53:51;;;;;;;3.30;1.90;;;15.10;99.90;;;;;;5052531;28;20065;-59
2022/09/01 02:56:19;;;;;;;3.75;1.90;;;15.10;99.90;;;;;;5035378;28;20049;-59
2022/09/01 02:58:45;;;;;;;5.13;2.00;;;15.10;99.90;;;;;;5034421;28;20048;-59
2022/09/01 03:01:19;;;;;;;4.30;2.17;;;15.10;99.90;;;;;;5034628;28;20089;-59
2022/09/01 03:03:45;;;;;;;4.82;1.60;;;15.00;99.90;;;;;;5052451;28;20052;-58
2022/09/01 03:06:11;;;;;;;3.15;1.88;;;15.00;99.90;;;;;;5051406;28;20435;-59
2022/09/01 03:08:38;;;;;;;4.38;1.95;;;15.00;99.90;;;;;;5018381;28;20095;-58
2022/09/01 03:11:09;;;;;;;3.40;1.80;;;15.00;99.90;;;;;;5052453;28;20131;-58
2022/09/01 03:13:37;;;;;;;5.28;2.00;;;14.90;99.90;;;;;;5017975;28;20110;-58
2022/09/01 03:16:07;;;;;;;5.35;1.90;;;15.00;99.90;;;;;;5052198;28;20490;-58
2022/09/01 03:18:33;;;;;;;3.45;1.75;;;14.90;99.90;;;;;;5018052;28;20045;-62
2022/09/01 03:21:01;;;;;;;2.40;1.70;;;14.90;99.90;;;;;;5034923;28;20071;-59
2022/09/01 03:23:30;;;;;;;3.17;1.73;;;14.90;99.90;;;;;;5052130;28;20084;-60
2022/09/01 03:25:56;;;;;;;2.58;1.90;;;14.80;99.90;;;;;;5018107;28;20147;-59
2022/09/01 03:28:22;;;;;;;3.50;1.88;;;14.80;99.90;;;;;;5018531;28;20053;-58
2022/09/01 03:30:52;;;;;;;3.65;1.80;;;14.80;99.90;;;;;;5034087;28;20478;-59
2022/09/01 03:33:20;;;;;;;3.83;1.60;;;14.80;99.90;;;;;;5034416;28;20063;-60
2022/09/01 03:35:46;;;;;;;3.42;1.92;;;14.80;99.90;;;;;;5017855;28;20049;-58
2022/09/01 03:38:21;;;;;;;4.32;2.40;;;14.70;99.90;;;;;;5034482;28;20441;-59
2022/09/01 03:40:49;;;;;;;4.25;2.10;;;14.70;99.90;;;;;;5052028;28;20049;-59
2022/09/01 03:43:15;;;;;;;3.05;2.17;;;14.70;99.90;;;;;;5034386;28;20056;-59
2022/09/01 03:45:42;;;;;;;5.55;2.00;;;14.70;99.90;;;;;;5051691;28;20045;-58
2022/09/01 03:48:09;;;;;;;3.35;1.90;;;14.70;99.90;;;;;;5052122;28;20100;-59
2022/09/01 03:50:44;;;;;;;4.18;2.05;;;14.70;99.90;;;;;;5051875;28;20053;-60
2022/09/01 03:53:14;;;;;;;3.45;2.00;;;14.70;99.90;;;;;;5034322;28;20079;-59
2022/09/01 03:55:40;;;;;;;3.97;2.13;;;14.70;99.90;;;;;;5050670;28;20044;-59
2022/09/01 03:58:08;;;;;;;4.55;1.95;;;14.60;99.90;;;;;;5033983;28;20041;-58
2022/09/01 04:00:38;;;;;;;3.22;1.80;;;14.60;99.90;;;;;;5033986;28;20053;-59
2022/09/01 04:03:06;;;;;;;3.42;2.28;;;14.60;99.90;;;;;;5051871;28;20398;-59
2022/09/01 04:05:36;;;;;;;2.58;2.00;;;14.60;99.90;;;;;;5051682;28;20080;-59
2022/09/01 04:08:05;;;;;;;3.50;2.20;;;14.50;99.90;;;;;;5051454;28;20045;-58
2022/09/01 04:10:32;;;;;;;4.03;2.20;;;14.50;99.90;;;;;;5033369;28;20045;-58
2022/09/01 04:13:04;;;;;;;2.88;2.10;;;14.50;99.90;;;;;;5033968;28;20053;-59
2022/09/01 04:15:31;;;;;;;3.03;1.95;;;14.50;99.90;;;;;;5051172;28;20049;-58
2022/09/01 04:18:09;;;;;;;3.33;2.25;;;14.50;99.90;;;;;;5051563;28;20394;-58
2022/09/01 04:20:48;;;;;;;3.30;2.38;;;14.40;99.90;;;;;;5051577;28;20123;-59
2022/09/01 04:23:25;;;;;;;3.17;2.30;;;14.40;99.90;;;;;;5034099;28;20092;-59
2022/09/01 04:26:13;;;;;;;3.00;2.30;;;;;;;;;;5033094;28;20044;-58
2022/09/01 04:28:47;;;;;;;4.65;2.10;;;;;;;;;;5051474;28;20406;-59
2022/09/01 04:31:18;;;;;;;3.30;2.53;;;;;;;;;;5051598;28;20045;-58
2022/09/01 04:33:45;;;;;;;3.22;2.20;;;;;;;;;;5051019;28;20667;-59
2022/09/01 04:36:18;;;;;;;3.63;2.42;;;;;;;;;;5051174;28;20044;-58
2022/09/01 04:38:45;;;;;;;3.63;2.50;;;;;;;;;;5050396;28;20495;-58
2022/09/01 04:41:16;;;;;;;4.60;2.65;;;;;;;;;;5051081;28;20159;-58
2022/09/01 04:43:43;;;;;;;3.03;2.00;;;;;;;;;;5051007;28;20135;-61
2022/09/01 04:46:11;;;;;;;6.95;2.30;;;;;;;;;;5016848;28;20061;-59
2022/09/01 04:48:41;;;;;;;3.40;2.10;;;14.40;99.90;;;;;;5050851;28;20384;-59
2022/09/01 04:51:14;;;;;;;2.45;2.10;;;14.20;99.90;;;;;;5050770;28;20120;-58
2022/09/01 04:53:47;;;;;;;5.25;2.38;;;14.30;99.90;;;;;;5051236;28;20052;-59
2022/09/01 04:56:17;;;;;;;2.45;2.08;;;14.30;99.90;;;;;;5051355;28;20059;-59
2022/09/01 04:58:42;;;;;;;4.43;2.38;;;14.20;99.90;;;;;;5051073;28;20041;-59
2022/09/01 05:01:22;;;;;;;3.78;2.63;;;14.30;99.90;;;;;;5050679;28;20127;-59
2022/09/01 05:04:00;;;;;;;3.42;2.10;;;14.30;99.90;;;;;;5033125;28;20065;-59
2022/09/01 05:06:28;;;;;;;4.40;2.30;;;14.20;99.90;;;;;;5050865;28;20516;-58
2022/09/01 05:08:56;;;;;;;4.28;2.50;;;14.30;99.90;;;;;;5036173;28;20053;-58
2022/09/01 05:11:22;;;;;;;7.35;2.53;;;14.30;99.90;;;;;;5054770;28;20128;-59
2022/09/01 05:13:49;;;;;;;7.72;3.08;;;14.30;99.90;;;;;;5054291;28;20111;-59
2022/09/01 05:16:20;;;;;;;3.17;2.20;;;14.30;99.90;;;;;;5054386;28;20087;-59
2022/09/01 05:18:48;;;;;;;4.28;2.60;;;14.30;99.90;;;;;;5054337;28;20048;-62
2022/09/01 05:21:18;;;;;;;3.10;2.30;;;14.30;99.90;;;;;;5054440;28;20048;-59
2022/09/01 05:23:45;;;;;;;6.28;2.67;;;14.30;99.90;;;;;;5054484;28;20044;-59
2022/09/01 05:26:20;;;;;;;5.13;2.55;;;14.40;99.90;;;;;;5053867;28;20500;-59
2022/09/01 05:28:48;;;;;;;4.55;2.40;;;14.40;99.90;;;;;;5036437;28;20048;-62
2022/09/01 05:31:18;;;;;;;7.18;2.45;;;14.40;99.90;;;;;;5054915;28;20049;-59
2022/09/01 05:33:47;;;;;;;3.83;2.50;;;14.40;99.90;;;;;;5054623;28;20121;-59
2022/09/01 05:36:16;;;;;;;4.75;2.85;;;14.50;99.90;;;;;;5054311;28;20493;-60
2022/09/01 05:38:43;;;;;;;4.22;2.33;;;14.50;99.90;;;;;;5036695;28;20041;-59
2022/09/01 05:41:13;;;;;;;3.05;2.22;;;14.60;99.90;;;;;;5053877;28;20127;-59
2022/09/01 05:43:45;;;;;;;4.82;2.72;;;14.60;99.90;;;;;;5053989;28;20047;-59
2022/09/01 05:46:16;;;;;;;4.22;2.60;;;14.70;99.90;;;;;;5053881;28;20394;-59
2022/09/01 05:48:48;;;;;;;4.13;2.72;;;14.70;99.90;;;;;;5020432;28;20091;-58
2022/09/01 05:51:18;;;;;;;3.95;2.40;;;14.80;99.90;;;;;;5053593;28;20049;-58
2022/09/01 05:53:45;;;;;;;4.38;2.42;;;14.80;99.90;;;;;;5053832;28;20478;-58
2022/09/01 05:56:12;;;;;;;5.30;2.38;;;14.90;99.90;;;;;;5053644;28;20064;-59
2022/09/01 05:58:39;;;;;;;3.83;2.10;;;15.30;99.90;;;;;;5036013;28;20399;-59
2022/09/01 06:01:05;;;;;;;3.78;2.20;;;16.30;99.90;;;;;;5053116;28;20069;-59
2022/09/01 06:03:32;;;;;;;3.38;2.35;;;17.60;99.90;;;;;;5053831;28;20137;-59
2022/09/01 06:06:07;;;;;;;3.60;2.08;;;18.70;99.90;;;;;;5053328;28;20043;-60
2022/09/01 06:08:35;;;;;;;6.03;2.25;;;19.80;99.90;;;;;;5036054;28;20043;-58
2022/09/01 06:11:02;;;;;;;5.07;2.00;;;20.70;99.90;;;;;;5053618;28;20203;-59
2022/09/01 06:13:28;;;;;;;4.13;1.90;;;21.60;99.90;;;;;;5053609;28;20103;-60
2022/09/01 06:15:57;;;;;;;5.05;2.05;;;22.20;99.90;;;;;;5019147;28;20052;-64
2022/09/01 06:18:23;;;;;;;2.95;1.77;;;22.30;98.50;;;;;;5052414;28;20498;-59
2022/09/01 06:20:49;;;;;;;6.47;2.08;;;22.30;99.80;;;;;;5053166;28;20485;-59
2022/09/01 06:23:16;;;;;;;5.20;2.00;;;21.90;99.10;;;;;;5053176;28;20146;-59
2022/09/01 06:25:45;;;;;;;4.45;1.70;;;21.40;99.40;;;;;;5052929;28;20502;-59
2022/09/01 06:28:16;;;;;;;6.40;1.85;;;20.60;99.30;;;;;;5053173;28;20394;-59
2022/09/01 06:30:43;;;;;;;4.32;1.75;;;19.90;99.60;;;;;;5053251;28;20052;-59
2022/09/01 06:33:11;;;;;;;3.35;1.75;;;19.40;99.90;;;;;;5053028;28;20045;-58
2022/09/01 06:35:37;;;;;;;3.55;2.05;;;18.90;99.90;;;;;;5035644;28;20048;-58
2022/09/01 06:38:05;;;;;;;5.35;2.10;;;18.60;99.90;;;;;;5052650;28;20084;-59
2022/09/01 06:40:32;;;;;;;4.30;2.13;;;18.30;99.90;;;;;;5035300;28;20498;-59
2022/09/01 06:43:06;;;;;;;3.00;1.73;;;18.00;99.90;;;;;;5035027;28;20402;-59
2022/09/01 06:45:34;;;;;;;3.35;2.10;;;17.90;99.90;;;;;;5035239;28;20063;-59
2022/09/01 06:48:00;;;;;;;3.05;2.17;;;17.70;99.90;;;;;;5052597;28;20049;-59
2022/09/01 06:50:26;;;;;;;4.25;1.90;;;17.60;99.90;;;;;;5052929;28;20048;-58
2022/09/01 06:53:07;;;;;;;2.33;1.80;;;17.60;99.90;;;;;;5035370;28;20045;-59
2022/09/01 06:55:36;;;;;;;2.90;1.90;;;17.70;99.90;;;;;;5035411;28;20059;-58
2022/09/01 06:58:05;;;;;;;3.92;2.00;;;17.80;99.90;;;;;;5052500;28;20048;-58
2022/09/01 07:00:30;;;;;;;3.28;2.20;;;17.90;99.90;;;;;;5052152;28;20092;-59
2022/09/01 07:02:57;;;;;;;5.43;2.00;;;17.90;99.90;;;;;;5052968;28;20049;-59
2022/09/01 07:05:24;;;;;;;4.78;2.22;;;17.80;99.90;;;;;;5034754;28;20053;-59
2022/09/01 07:07:54;;;;;;;5.80;2.45;;;17.70;99.90;;;;;;5052686;28;20045;-59
2022/09/01 07:10:24;;;;;;;3.20;2.08;;;17.60;99.90;;;;;;5052399;28;20132;-58
2022/09/01 07:12:54;;;;;;;4.22;2.00;;;17.50;99.90;;;;;;5052422;28;20045;-59
2022/09/01 07:15:20;;;;;;;3.97;2.15;;;17.40;99.90;;;;;;5052215;28;20044;-58
2022/09/01 07:17:52;;;;;;;4.38;2.00;;;17.40;99.90;;;;;;5034789;28;20055;-59
2022/09/01 07:20:25;;;;;;;5.22;1.83;;;17.40;99.90;;;;;;5034460;28;20084;-58
2022/09/01 07:22:53;;;;;;;3.80;2.17;;;17.40;99.90;;;;;;5052813;28;20048;-58
2022/09/01 07:25:19;;;;;;;4.50;1.92;;;17.50;99.90;;;;;;5051952;28;20041;-58
2022/09/01 07:27:49;;;;;;;5.90;2.03;;;17.50;99.90;;;;;;5052205;28;20053;-59
2022/09/01 07:30:19;;;;;;;3.00;1.98;;;17.60;99.90;;;;;;5052043;28;20131;-58
2022/09/01 07:32:46;;;;;;;2.00;1.42;;;17.70;99.90;;;;;;5052399;28;20469;-58
2022/09/01 07:35:14;;;;;;;3.25;1.80;;;17.90;99.90;;;;;;5034294;28;20068;-59
2022/09/01 07:37:40;;;;;;;3.25;1.80;;;18.00;99.90;;;;;;5034369;28;20040;-58
2022/09/01 07:40:08;;;;;;;4.85;2.17;;;18.10;99.90;;;;;;5017535;28;20443;-59
2022/09/01 07:42:37;;;;;;;5.20;2.08;;;18.20;99.90;;;;;;5034156;28;20049;-58
2022/09/01 07:45:10;;;;;;;3.92;1.90;;;18.30;99.90;;;;;;5051862;28;20055;-62
2022/09/01 07:47:36;;;;;;;4.22;1.88;;;18.30;99.90;;;;;;5051923;28;20048;-59
2022/09/01 07:50:07;;;;;;;4.05;1.85;;;18.40;99.90;;;;;;5051816;28;20049;-59
2022/09/01 07:52:41;;;;;;;3.75;1.90;;;18.90;99.90;;;;;;5051152;28;20108;-58
2022/09/01 07:55:10;;;;;;;3.95;2.13;;;19.30;99.90;;;;;;5049043;28;20045;-63
2022/09/01 07:57:39;;;;;;;4.47;1.70;;;19.60;99.90;;;;;;5050270;28;20547;-60
2022/09/01 08:00:11;;;;;;;3.97;1.90;;;20.00;99.90;;;;;;5033626;28;20406;-62
2022/09/01 08:02:38;;;;;;;3.55;1.65;;;20.20;99.90;;;;;;5051829;28;20064;-60
2022/09/01 08:05:08;;;;;;;2.38;1.63;;;20.80;99.90;;;;;;5033810;28;20041;-59
2022/09/01 08:07:37;;;;;;;4.40;1.52;;;21.70;99.90;;;;;;5051360;28;20132;-60
2022/09/01 08:10:06;;;;;;;3.58;1.88;;;23.00;99.90;;;;;;5017182;28;20041;-59
2022/09/01 08:12:33;;;;;;;2.97;1.98;;;23.10;97.30;;;;;;5050966;28;20081;-60
2022/09/01 08:15:00;;;;;;;3.08;2.03;;;22.80;98.40;;;;;;5051560;28;20143;-60
2022/09/01 08:17:26;;;;;;;3.92;1.70;;;22.30;98.80;;;;;;5032574;28;20049;-60
2022/09/01 08:19:52;;;;;;;6.20;1.90;;;22.00;98.30;;;;;;5017340;28;20617;-60
2022/09/01 08:22:22;;;;;;;2.83;1.60;;;21.60;98.40;;;;;;5051238;28;20265;-60
2022/09/01 08:24:48;;;;;;;5.20;1.90;;;21.30;99.00;;;;;;5051457;28;20040;-60
2022/09/01 08:27:14;;;;;;;3.13;1.50;;;21.20;99.30;;;;;;5032921;28;20052;-62
2022/09/01 08:29:39;;;;;;;3.55;1.90;;;21.00;99.50;;;;;;5051164;28;20048;-60
2022/09/01 08:32:05;;;;;;;3.28;1.30;;;21.00;98.70;;;;;;5033601;28;20051;-60
2022/09/01 08:34:33;;;;;;;2.83;1.60;;;21.20;99.00;;;;;;5050962;28;20375;-60
2022/09/01 08:36:58;;;;;;;3.53;1.88;;;21.20;98.50;;;;;;5033678;28;20390;-60
2022/09/01 08:39:25;;;;;;;5.55;1.80;;;21.30;98.90;;;;;;5032771;28;20037;-61
2022/09/01 08:42:17;;;;;;;4.50;1.60;;;21.70;99.00;;;;;;5052150;28;20052;-61
2022/09/01 08:45:04;;;;;;;3.55;1.50;;;22.70;98.60;;;;;;5054868;28;20044;-61
2022/09/01 08:47:31;;;;;;;3.08;1.75;;;23.70;96.70;;;;;;5054164;28;20040;-60
2022/09/01 08:49:58;;;;;;;2.33;1.70;;;24.60;96.10;;;;;;5037424;28;20131;-61
2022/09/01 08:52:35;;;;;;;3.45;1.60;;;25.60;95.90;;;;;;5054392;28;20123;-60
2022/09/01 08:55:20;;;;;;;4.30;1.90;;;26.50;93.20;;;;;;5054579;28;20049;-61
2022/09/01 08:57:50;;;;;;;6.10;1.80;;;27.20;92.60;;;;;;5054936;28;20098;-61
2022/09/01 09:00:18;;;;;;;3.33;1.48;;;27.60;92.70;;;;;;5037289;28;20103;-60
2022/09/01 09:03:04;;;;;;;3.95;1.63;;;;;;;;;;5054167;28;20061;-60
2022/09/01 09:05:37;;;;;;;3.88;1.55;;;27.90;91.70;;;;;;5054068;28;20060;-60
2022/09/01 09:08:38;;;;;;;3.47;1.35;;;28.60;91.00;;;;;;5036771;28;20053;-61
2022/09/01 09:11:16;;;;;;;3.53;1.60;;;29.00;89.80;;;;;;5054604;28;20060;-61
2022/09/01 09:14:12;;;;;;;2.25;1.42;;;28.70;88.60;;;;;;5054743;28;20486;-60
2022/09/01 09:16:45;;;;;;;2.75;1.42;;;28.30;90.70;;;;;;5054578;28;20506;-61
2022/09/01 09:19:14;;;;;;;5.07;1.60;;;28.20;90.90;;;;;;5052789;28;20487;-60
2022/09/01 09:21:43;;;;;;;3.28;1.40;;;28.40;90.80;;;;;;5054301;28;20052;-60
2022/09/01 09:24:51;;;;;;;2.10;1.30;;;28.50;90.60;;;;;;5036404;28;20550;-60
2022/09/01 09:27:18;;;;;;;8.60;1.40;;;28.80;90.30;;;;;;5036144;28;20041;-60
2022/09/01 09:29:46;;;;;;;3.45;1.27;;;28.70;88.90;;;;;;5054351;28;20142;-60
2022/09/01 09:32:11;;;;;;;4.13;1.30;;;27.70;88.50;;;;;;5036003;28;20514;-61
2022/09/01 09:34:40;;;;;;;1.98;1.02;;;26.80;88.50;;;;;;5053448;28;20084;-61
2022/09/01 09:37:35;;;;;;;3.95;1.40;;;26.10;89.40;;;;;;5036258;28;20434;-60
2022/09/01 09:40:13;;;;;;;3.55;1.40;;;25.80;90.40;;;;;;5036650;28;20132;-59
2022/09/01 09:43:01;;;;;;;3.10;1.30;;;25.40;90.10;;;;;;5053635;28;20096;-59
2022/09/01 09:45:33;;;;;;;2.35;1.10;;;24.90;90.30;;;;;;5036241;28;20391;-59
2022/09/01 09:48:03;;;;;;;2.17;1.10;;;24.60;90.80;;;;;;5054138;28;20044;-59
2022/09/01 09:50:34;;;;;;;1.50;1.17;;;24.40;91.20;;;;;;5053851;28;20052;-59
2022/09/01 09:53:25;;;;;;;3.17;1.00;;;24.40;90.90;;;;;;5053550;28;20056;-60
2022/09/01 09:56:08;;;;;;;5.35;1.40;;;24.50;90.50;;;;;;5054133;28;20041;-60
2022/09/01 09:58:40;;;;;;;3.47;1.38;;;24.50;90.70;;;;;;5052295;28;20103;-61
2022/09/01 10:01:14;;;;;;;2.78;1.20;;;24.30;91.00;;;;;;5036050;28;20087;-61
2022/09/01 10:03:47;;;;;;;2.22;1.30;;;24.20;90.80;;;;;;5053174;28;20053;-61
2022/09/01 10:06:34;;;;;;;2.60;1.23;;;24.10;90.80;;;;;;5021252;28;20048;-59
2022/09/01 10:09:13;;;;;;;3.05;1.23;;;24.00;90.20;;;;;;5054013;28;20048;-59
2022/09/01 10:11:42;;;;;;;2.67;1.02;;;23.80;90.20;;;;;;5036100;28;20157;-60
2022/09/01 10:14:30;;;;;;;2.00;1.00;;;23.60;90.70;;;;;;5054008;28;20081;-59
2022/09/01 10:17:01;;;;;;;3.63;1.25;;;23.70;90.90;;;;;;5053877;28;20124;-59
2022/09/01 10:19:29;;;;;;;1.45;0.90;;;23.60;90.60;;;;;;5053314;28;20052;-60
2022/09/01 10:21:55;;;;;;;1.45;1.10;;;23.60;90.50;;;;;;5036176;28;20045;-59
2022/09/01 10:24:36;;;;;;;0.88;0.88;;;23.60;89.70;;;;;;5053437;28;20049;-63
2022/09/01 10:27:24;;;;;;;3.22;1.10;;;23.70;89.70;;;;;;5035939;28;20056;-60
2022/09/01 10:30:00;;;;;;;2.25;1.02;;;23.60;90.10;;;;;;5053527;28;20044;-59
2022/09/01 10:32:37;;;;;;;1.50;0.73;;;23.50;89.20;;;;;;5053154;28;20049;-59
2022/09/01 10:35:04;;;;;;;1.83;1.02;;;23.40;89.20;;;;;;5053417;28;20123;-59
2022/09/01 10:37:31;;;;;;;1.55;1.10;;;23.30;90.10;;;;;;5018955;28;20494;-59
2022/09/01 10:40:17;;;;;;;3.55;1.00;;;23.40;90.30;;;;;;5053213;28;20052;-63
2022/09/01 10:42:46;;;;;;;2.60;1.00;;;23.40;89.60;;;;;;5052887;28;20063;-59
2022/09/01 10:45:18;;;;;;;1.63;1.00;;;23.40;89.80;;;;;;5035403;28;20041;-60
2022/09/01 10:47:44;;;;;;;2.15;1.10;;;23.40;89.50;;;;;;5052363;28;20482;-62
2022/09/01 10:50:32;;;;;;;3.55;1.23;;;23.40;90.10;;;;;;5035401;28;20060;-62
2022/09/01 10:53:06;;;;;;;4.10;1.10;;;23.30;90.10;;;;;;5018659;28;20079;-62
2022/09/01 10:55:35;;;;;;;;;;;23.30;90.20;;;;;;5035109;28;20137;-62
2022/09/01 10:58:27;;;;;;;2.15;1.00;;;23.40;89.10;;;;;;5049459;28;19921;-62
2022/09/01 11:00:54;;;;;;;2.47;0.95;;;23.50;86.10;;;;;;5051977;28;20084;-63
2022/09/01 11:03:20;;;;;;;1.95;1.13;;;23.60;87.50;;;;;;5034991;28;20092;-62
2022/09/01 11:06:03;;;;;;;2.22;1.10;;;23.60;85.80;;;;;;5052010;28;20624;-62
2022/09/01 11:08:28;;;;;;;1.48;0.90;;;23.40;86.10;;;;;;5034433;28;20116;-64
2022/09/01 11:10:59;;;;;;;3.00;1.15;;;23.30;87.70;;;;;;5051955;28;20430;-62
2022/09/01 11:13:42;;;;;;;2.78;1.00;;;23.30;87.70;;;;;;5018254;28;20072;-62
2022/09/01 11:16:38;;;;;;;2.28;0.98;;;23.40;86.50;;;;;;5052092;28;20148;-62
2022/09/01 11:19:22;;;;;;;2.90;1.10;;;23.40;87.40;;;;;;5017114;28;20052;-67
2022/09/01 11:22:22;;;;;;;2.75;1.15;;;23.30;86.70;;;;;;5051671;28;20120;-63
2022/09/01 11:24:51;;;;;;;1.85;1.30;;;23.10;86.30;;;;;;5033833;28;20056;-63
2022/09/01 11:27:47;;;;;;;1.98;1.10;;;23.20;85.80;;;;;;5034226;28;20044;-62
2022/09/01 11:30:22;;;;;;;3.90;1.25;;;23.30;85.20;;;;;;5034132;28;20518;-62
2022/09/01 11:33:05;;;;;;;2.03;0.98;;;23.30;85.00;;;;;;5049891;28;20123;-62
2022/09/01 11:35:31;;;;;;;2.00;1.25;;;23.30;84.90;;;;;;5050147;28;20124;-65
2022/09/01 11:38:04;;;;;;;1.58;1.05;;;23.30;85.20;;;;;;5052173;28;20132;-66
2022/09/01 11:40:32;;;;;;;3.53;1.30;;;23.10;84.80;;;;;;5034287;28;20073;-66
2022/09/01 11:43:05;;;;;;;3.30;1.10;;;23.10;84.80;;;;;;5050927;28;20057;-64
2022/09/01 11:45:32;;;;;;;3.63;1.30;;;23.00;85.10;;;;;;5052113;28;20344;-66
2022/09/01 11:48:05;;;;;;;1.95;0.95;;;23.10;85.30;;;;;;5034506;28;20049;-62
2022/09/01 11:50:36;;;;;;;2.60;0.80;;;23.10;84.90;;;;;;5051933;28;20103;-68
2022/09/01 11:53:06;;;;;;;1.35;1.05;;;23.20;85.20;;;;;;5034320;28;20084;-62
2022/09/01 11:55:42;;;;;;;1.25;0.90;;;23.20;85.00;;;;;;5051185;28;20053;-66
2022/09/01 11:58:26;;;;;;;3.45;1.20;;;23.40;84.70;;;;;;5033810;28;20456;-62
2022/09/01 12:00:59;;;;;;;1.58;1.00;;;23.40;84.20;;;;;;5033772;28;20049;-63
2022/09/01 12:03:28;;;;;;;3.08;1.10;;;23.40;84.40;;;;;;5051121;28;20056;-62
2022/09/01 12:06:04;;;;;;;3.50;0.90;;;23.40;83.50;;;;;;5032949;28;20076;-62
2022/09/01 12:08:34;;;;;;;2.05;1.08;;;23.40;83.70;;;;;;5051266;28;20067;-62
2022/09/01 12:11:17;;;;;;;1.33;1.00;;;23.40;83.50;;;;;;5051744;28;20052;-62
2022/09/01 12:13:55;;;;;;;4.43;1.20;;;23.40;83.30;;;;;;5051150;28;20044;-62
2022/09/01 12:16:21;;;;;;;1.98;1.15;;;23.50;83.40;;;;;;5050618;28;20187;-62
2022/09/01 12:18:52;;;;;;;1.20;0.73;;;23.50;83.70;;;;;;5050800;28;20124;-61
2022/09/01 12:21:20;;;;;;;0.80;0.80;;;23.50;84.50;;;;;;5051527;28;20041;-62
2022/09/01 12:23:46;;;;;;;2.33;1.15;;;23.60;84.60;;;;;;5033581;28;20052;-62
2022/09/01 12:26:19;;;;;;;1.95;0.90;;;23.60;83.90;;;;;;5033860;28;20048;-62
2022/09/01 12:28:48;;;;;;;4.10;1.20;;;23.70;84.20;;;;;;5050991;28;20044;-63
2022/09/01 12:31:18;;;;;;;2.22;1.15;;;23.70;84.10;;;;;;5034129;28;20045;-64
2022/09/01 12:33:46;;;;;;;1.30;0.93;;;23.70;83.70;;;;;;5051189;28;20037;-61
2022/09/01 12:36:26;;;;;;;1.10;0.90;;;23.70;83.40;;;;;;5051406;28;20129;-62
2022/09/01 12:38:54;;;;;;;1.42;0.82;;;23.70;83.20;;;;;;5051010;28;20045;-61
2022/09/01 12:41:37;;;;;;;3.95;1.00;;;23.80;83.90;;;;;;5050934;28;20084;-62
2022/09/01 12:44:29;;;;;;;2.13;1.10;;;23.80;83.70;;;;;;5051141;28;20503;-62
2022/09/01 12:46:57;;;;;;;2.08;0.90;;;23.90;83.00;;;;;;5033105;28;20053;-61
2022/09/01 12:49:33;;;;;;;3.40;1.02;;;23.90;82.30;;;;;;5051357;28;20060;-61
2022/09/01 12:52:26;;;;;;;1.67;1.10;;;23.90;82.50;;;;;;5033678;28;20120;-61
2022/09/01 12:54:52;;;;;;;1.45;0.88;;;24.00;83.10;;;;;;5047507;28;20140;-61
2022/09/01 12:57:28;;;;;;;2.58;0.90;;;24.00;82.90;;;;;;5051463;28;20084;-61
2022/09/01 13:00:09;;;;;;;2.05;0.90;;;23.90;82.70;;;;;;5050919;28;20056;-62
2022/09/01 13:02:39;;;;;;;2.00;0.90;;;23.90;84.00;;;;;;5051273;28;20057;-61
2022/09/01 13:05:32;;;;;;;4.25;1.20;;;23.90;83.10;;;;;;5051396;28;20124;-61
2022/09/01 13:08:05;;;;;;;2.17;0.95;;;23.80;83.10;;;;;;5033478;28;20084;-61
2022/09/01 13:10:49;;;;;;;2.78;1.33;;;23.80;82.70;;;;;;5033575;28;20045;-62
2022/09/01 13:13:25;;;;;;;2.20;0.98;;;24.00;83.40;;;;;;5051269;28;20087;-62
2022/09/01 13:15:53;;;;;;;2.47;1.00;;;24.10;82.90;;;;;;5050858;28;20433;-62